Time;durP1;ratioP1;P1;durP2;ratioP2;P2;SDS_P1;SDS_P2;PMS_P1;PMS_P2;Temp;Humidity;BMP_temperature;BMP_pressure;BME280_temperature;BME280_humidity;BME280_pressure;Samples;Min_cycle;Max_cycle;Signal;HPM_P1;HPM_P2
2021/05/15 00:02:47;;;;;;;21.42;5.95;;;;;;;11.15;81.82;99731.70;1745069;82;21718;-80
2021/05/15 00:05:51;;;;;;;14.80;6.72;;;;;;;11.09;82.05;99732.97;1745065;82;21276;-80
2021/05/15 00:08:57;;;;;;;16.48;5.80;;;;;;;11.05;82.26;99735.77;1744713;82;21193;-80
2021/05/15 00:12:01;;;;;;;14.25;5.45;;;;;;;10.99;82.47;99736.87;1745093;82;21136;-80
2021/05/15 00:15:07;;;;;;;18.92;5.80;;;;;;;10.94;82.58;99736.60;1744953;82;21173;-80
2021/05/15 00:18:11;;;;;;;16.82;5.62;;;;;;;10.94;82.57;99741.23;1744882;82;21331;-80
2021/05/15 00:21:16;;;;;;;14.23;4.75;;;;;;;10.94;82.54;99752.17;1745077;82;21721;-80
2021/05/15 00:24:20;;;;;;;12.03;5.53;;;;;;;10.90;82.54;99751.70;1744881;82;21829;-80
2021/05/15 00:27:25;;;;;;;18.52;5.78;;;;;;;10.87;82.66;99755.33;1744843;82;21191;-80
2021/05/15 00:30:30;;;;;;;9.98;4.42;;;;;;;10.85;82.95;99758.80;1744975;82;21192;-80
2021/05/15 00:33:34;;;;;;;8.75;3.37;;;;;;;10.85;83.19;99763.74;1744972;82;21219;-80
2021/05/15 00:36:38;;;;;;;16.17;4.12;;;;;;;10.87;83.27;99762.17;1722485;82;21133;-80
2021/05/15 00:39:42;;;;;;;8.83;3.83;;;;;;;10.87;83.30;99762.17;1745005;82;21287;-80
2021/05/15 00:42:47;;;;;;;17.98;4.50;;;;;;;10.90;83.56;99759.06;1745016;82;21758;-80
2021/05/15 00:45:53;;;;;;;10.40;4.85;;;;;;;10.91;83.79;99767.07;1744966;82;21183;-80
2021/05/15 00:48:57;;;;;;;15.00;4.25;;;;;;;10.92;83.99;99777.00;1744931;82;21204;-80
2021/05/15 00:52:01;;;;;;;10.63;4.78;;;;;;;10.94;83.94;99774.06;1745055;82;21160;-80
2021/05/15 00:55:06;;;;;;;12.53;4.85;;;;;;;10.92;83.94;99770.69;1753072;78;21355;-80
2021/05/15 00:58:11;;;;;;;11.25;5.17;;;;;;;10.93;84.16;99768.27;1771730;81;21842;-80
2021/05/15 01:01:16;;;;;;;10.03;4.50;;;;;;;10.94;84.40;99762.59;1771855;81;21369;-81
2021/05/15 01:04:21;;;;;;;12.73;3.95;;;;;;;10.97;84.44;99758.12;1771822;81;21699;-80
2021/05/15 01:07:25;;;;;;;13.00;4.67;;;;;;;11.02;84.32;99747.13;1771839;81;21304;-80
2021/05/15 01:10:30;;;;;;;18.27;3.85;;;;;;;11.04;84.10;99745.02;1771853;81;21264;-80
2021/05/15 01:13:35;;;;;;;15.43;4.62;;;;;;;11.05;84.04;99741.23;1771893;81;21228;-80
2021/05/15 01:16:42;;;;;;;12.47;5.12;;;;;;;11.09;84.16;99749.39;1771759;81;21715;-80
2021/05/15 01:19:47;;;;;;;16.85;4.90;;;;;;;11.15;84.18;99748.61;1771535;81;21328;-80
2021/05/15 01:22:52;;;;;;;19.37;5.12;;;;;;;11.19;84.09;99748.55;1771813;81;21303;-80
2021/05/15 01:25:58;;;;;;;12.23;4.83;;;;;;;11.25;83.99;99749.17;1771637;80;21155;-80
2021/05/15 01:29:04;;;;;;;13.90;4.58;;;;;;;11.33;84.05;99746.28;1771804;81;21842;-80
2021/05/15 01:32:08;;;;;;;9.75;4.60;;;;;;;11.40;83.91;99743.11;1771912;81;21271;-80
2021/05/15 01:35:13;;;;;;;20.88;4.37;;;;;;;11.45;83.52;99737.89;1771670;81;21336;-81
2021/05/15 01:38:18;;;;;;;14.30;4.67;;;;;;;11.45;83.34;99735.15;1771657;81;21319;-81
2021/05/15 01:41:25;;;;;;;10.05;4.30;;;;;;;11.46;83.38;99724.52;1771807;81;21759;-81
2021/05/15 01:44:30;;;;;;;15.38;4.83;;;;;;;11.46;83.34;99723.14;1771853;81;21835;-81
2021/05/15 01:47:35;;;;;;;9.73;5.15;;;;;;;11.43;83.39;99724.05;1771824;81;21284;-81
2021/05/15 01:50:39;;;;;;;12.93;4.58;;;;;;;11.38;83.41;99724.64;1771097;81;21165;-80
2021/05/15 01:53:48;;;;;;;9.95;3.40;;;;;;;11.35;83.70;99716.84;1771617;81;21184;-81
2021/05/15 01:56:53;;;;;;;11.57;3.52;;;;;;;11.37;83.99;99718.00;1779626;78;21825;-80
2021/05/15 01:59:58;;;;;;;5.22;3.52;;;;;;;11.36;84.06;99722.63;1772263;80;21177;-80
2021/05/15 02:03:02;;;;;;;12.05;3.62;;;;;;;11.36;84.15;99719.89;1785507;80;21699;-80
2021/05/15 02:06:06;;;;;;;7.67;3.40;;;;;;;11.35;83.87;99729.16;1785588;80;21663;-80
2021/05/15 02:09:11;;;;;;;10.95;3.33;;;;;;;11.35;83.64;99731.05;1785376;80;21279;-80
2021/05/15 02:12:15;;;;;;;11.05;3.22;;;;;;;11.34;83.37;99732.95;1785529;80;21307;-80
2021/05/15 02:15:22;;;;;;;8.95;3.50;;;;;;;11.32;83.20;99735.53;1785399;80;22065;-80
2021/05/15 02:18:27;;;;;;;10.98;3.45;;;;;;;11.31;83.45;99731.11;1785543;80;21297;-80
2021/05/15 02:21:33;;;;;;;9.65;3.62;;;;;;;11.34;83.77;99734.31;1784479;80;21174;-80
2021/05/15 02:24:37;;;;;;;9.83;2.98;;;;;;;11.38;83.69;99738.86;1785669;80;21829;-80
2021/05/15 02:27:43;;;;;;;13.43;3.12;;;;;;;11.39;83.45;99733.73;1785643;80;21330;-80
2021/05/15 02:30:47;;;;;;;7.40;3.30;;;;;;;11.40;83.48;99739.00;1785523;80;21141;-80
2021/05/15 02:33:52;;;;;;;8.63;3.50;;;;;;;11.45;83.54;99744.73;1785536;80;21211;-81
2021/05/15 02:36:57;;;;;;;6.22;2.65;;;;;;;11.56;83.47;99743.88;1785534;80;21137;-80
2021/05/15 02:40:01;;;;;;;5.25;2.70;;;;;;;11.69;83.20;99746.22;1785552;80;21157;-80
2021/05/15 02:43:06;;;;;;;10.68;3.25;;;;;;;11.85;82.77;99746.48;1785519;80;21322;-80
2021/05/15 02:46:10;;;;;;;9.25;4.00;;;;;;;12.11;82.23;99752.70;1785730;80;21730;-80
2021/05/15 02:49:14;;;;;;;10.00;4.03;;;;;;;12.43;81.67;99756.72;1785568;80;21814;-80
2021/05/15 02:52:19;;;;;;;4.87;2.80;;;;;;;12.84;80.60;99759.97;1770512;80;21299;-80
2021/05/15 02:55:26;;;;;;;5.78;2.80;;;;;;;13.22;78.98;99769.12;1772313;80;21716;-81
2021/05/15 02:58:31;;;;;;;8.83;2.52;;;;;;;13.59;77.85;99769.64;1772628;78;21299;-80
2021/05/15 03:01:35;;;;;;;6.35;2.47;;;;;;;13.90;76.02;99773.17;1771966;81;21850;-80
2021/05/15 03:04:40;;;;;;;7.97;3.35;;;;;;;13.92;74.50;99776.00;1771816;81;21193;-80
2021/05/15 03:07:44;;;;;;;9.35;2.85;;;;;;;13.79;74.25;99770.53;1771768;81;21289;-81
2021/05/15 03:10:48;;;;;;;4.30;2.95;;;;;;;13.58;74.60;99780.31;1763517;81;21261;-80
2021/05/15 03:13:53;;;;;;;4.47;2.30;;;;;;;13.41;75.12;99779.84;1771838;81;21299;-80
2021/05/15 03:16:58;;;;;;;6.15;3.22;;;;;;;13.30;75.70;99779.93;1763406;81;21273;-81
2021/05/15 03:20:04;;;;;;;5.47;2.52;;;;;;;13.15;76.25;99777.84;1771914;81;21256;-81
2021/05/15 03:23:09;;;;;;;8.83;2.77;;;;;;;13.04;76.90;99781.52;1771853;81;21185;-81
2021/05/15 03:26:13;;;;;;;7.55;3.12;;;;;;;13.04;77.37;99782.05;1771880;81;21260;-81
2021/05/15 03:29:18;;;;;;;12.55;3.27;;;;;;;13.10;77.58;99777.09;1771961;81;21175;-81
2021/05/15 03:32:23;;;;;;;11.95;3.50;;;;;;;13.18;77.65;99776.08;1771778;81;21269;-80
2021/05/15 03:35:28;;;;;;;10.15;3.95;;;;;;;13.21;77.83;99782.50;1771803;81;21260;-81
2021/05/15 03:38:32;;;;;;;7.50;3.35;;;;;;;13.33;77.81;99786.92;1771829;81;21311;-81
2021/05/15 03:41:36;;;;;;;8.85;3.35;;;;;;;13.53;77.72;99784.53;1771894;81;21217;-81
2021/05/15 03:44:43;;;;;;;10.13;4.15;;;;;;;13.80;77.53;99779.92;1771840;81;21823;-81
2021/05/15 03:47:48;;;;;;;16.20;4.17;;;;;;;14.02;76.74;99788.83;1771862;81;21275;-81
2021/05/15 03:51:00;;;;;;;12.45;4.60;;;;;;;14.20;76.32;99798.33;1771845;81;21273;-81
2021/05/15 03:54:05;;;;;;;10.10;4.03;;;;;;;14.38;75.78;99793.55;1771771;81;21304;-81
2021/05/15 03:57:09;;;;;;;6.87;3.80;;;;;;;14.56;75.24;99790.48;1771747;81;21268;-81
2021/05/15 04:00:14;;;;;;;11.85;4.55;;;;;;;14.76;74.69;99789.59;1785424;80;21168;-81
2021/05/15 04:03:19;;;;;;;8.95;4.28;;;;;;;14.94;74.37;99786.99;1784556;80;21283;-81
2021/05/15 04:06:24;;;;;;;18.02;5.70;;;;;;;15.13;74.06;99777.48;1750932;80;21260;-81
2021/05/15 04:09:28;;;;;;;17.87;5.00;;;;;;;15.28;73.79;99782.18;1785309;80;21185;-81
2021/05/15 04:12:45;;;;;;;12.98;4.58;;;;;;;15.45;73.78;99773.72;1785235;80;21829;-82
2021/05/15 04:15:49;;;;;;;15.83;4.30;;;;;;;15.74;72.96;99776.42;1770584;80;21814;-82
2021/05/15 04:18:46;;;;;;;12.35;4.05;;;;;;;16.05;71.97;99773.34;1785352;80;21204;-82
2021/05/15 04:21:52;;;;;;;11.50;4.40;;;;;;;16.32;70.93;99776.68;1785045;80;21185;-82
2021/05/15 04:24:58;;;;;;;6.25;3.42;;;;;;;16.55;70.53;99778.25;1785119;80;21798;-82
2021/05/15 04:28:03;;;;;;;11.97;4.10;;;;;;;16.76;69.75;99776.17;1766540;80;21814;-82
2021/05/15 04:31:07;;;;;;;10.03;3.80;;;;;;;16.98;69.02;99780.14;1785233;80;21862;-82
2021/05/15 04:34:12;;;;;;;11.60;3.65;;;;;;;17.25;68.40;99782.58;1784979;80;21184;-82
2021/05/15 04:37:17;;;;;;;7.72;2.92;;;;;;;17.53;67.77;99780.60;1785081;80;21275;-82
2021/05/15 04:40:22;;;;;;;11.70;4.12;;;;;;;17.76;66.82;99787.63;1770205;80;21707;-82
2021/05/15 04:43:27;;;;;;;13.38;4.03;;;;;;;17.98;65.94;99784.33;1784505;80;21223;-82
2021/05/15 04:46:31;;;;;;;19.05;4.80;;;;;;;18.22;65.47;99783.83;1766469;80;21284;-82
2021/05/15 04:49:35;;;;;;;18.60;6.30;;;;;;;18.44;64.99;99790.44;1785385;80;21191;-82
2021/05/15 04:52:40;;;;;;;15.85;5.15;;;;;;;18.63;64.45;99789.26;1784495;80;21320;-82
2021/05/15 04:55:46;;;;;;;26.30;4.62;;;;;;;18.82;63.96;99796.05;1785084;80;21828;-82
2021/05/15 04:58:50;;;;;;;11.33;4.50;;;;;;;18.99;63.80;99803.09;1781273;80;21193;-82
2021/05/15 05:01:56;;;;;;;13.28;5.25;;;;;;;19.15;63.71;99804.58;1771645;81;21918;-82
2021/05/15 05:05:00;;;;;;;8.85;3.55;;;;;;;19.27;62.33;99800.37;1771741;81;21281;-82
2021/05/15 05:08:04;;;;;;;13.93;2.90;;;;;;;19.42;61.77;99801.22;1771564;81;21277;-82
2021/05/15 05:11:11;;;;;;;5.42;3.30;;;;;;;19.53;61.11;99800.91;1771648;81;21300;-82
2021/05/15 05:14:16;;;;;;;8.80;3.12;;;;;;;19.69;60.29;99796.52;1770415;81;21319;-82
2021/05/15 05:17:14;;;;;;;7.20;3.17;;;;;;;19.78;59.98;99799.18;1771379;81;21323;-82
2021/05/15 05:20:20;;;;;;;9.00;3.00;;;;;;;19.82;60.32;99805.38;1771163;81;21304;-82
2021/05/15 05:23:25;;;;;;;7.72;2.80;;;;;;;19.90;60.25;99798.04;1771304;81;21272;-83
2021/05/15 05:26:30;;;;;;;6.67;2.85;;;;;;;20.01;60.42;99800.98;1771332;81;21265;-83
2021/05/15 05:29:35;;;;;;;9.48;3.10;;;;;;;20.11;60.02;99806.16;1771761;81;21763;-83
2021/05/15 05:32:40;;;;;;;7.62;2.75;;;;;;;20.23;60.32;99797.78;1771012;81;21308;-83
2021/05/15 05:35:45;;;;;;;14.30;3.55;;;;;;;20.37;60.13;99798.25;1771493;81;21272;-83
2021/05/15 05:38:49;;;;;;;13.55;2.98;;;;;;;20.52;59.57;99798.55;1771580;81;21161;-83
2021/05/15 05:41:53;;;;;;;7.70;3.05;;;;;;;20.66;59.81;99801.82;1771496;81;21300;-83
2021/05/15 05:44:58;;;;;;;10.32;2.90;;;;;;;20.71;58.75;99793.55;1771431;81;21162;-83
2021/05/15 05:48:03;;;;;;;5.00;2.15;;;;;;;20.74;59.36;99804.69;1771739;81;21300;-83
2021/05/15 05:51:08;;;;;;;5.22;2.70;;;;;;;20.81;58.87;99803.98;1771335;81;21292;-84
2021/05/15 05:54:12;;;;;;;4.80;2.27;;;;;;;20.91;58.86;99804.95;1770329;81;21197;-84
2021/05/15 05:57:17;;;;;;;9.53;2.33;;;;;;;21.04;59.03;99802.36;1771610;81;21881;-84
2021/05/15 06:00:22;;;;;;;6.33;2.08;;;;;;;21.15;58.95;99802.78;1774976;80;21825;-84
2021/05/15 06:03:27;;;;;;;6.12;2.33;;;;;;;21.22;57.72;99800.34;1779178;80;21339;-84
2021/05/15 06:06:33;;;;;;;7.10;2.17;;;;;;;21.32;57.42;99799.14;1779714;80;21280;-84
2021/05/15 06:09:37;;;;;;;5.60;1.80;;;;;;;21.44;57.97;99802.05;1778622;80;21340;-84
2021/05/15 06:12:41;;;;;;;7.62;2.00;;;;;;;21.53;57.48;99802.44;1779483;80;21351;-84
2021/05/15 06:15:47;;;;;;;4.85;1.52;;;;;;;21.61;57.38;99815.06;1778334;80;21160;-84
2021/05/15 06:18:52;;;;;;;3.47;1.67;;;;;;;21.66;57.08;99815.95;1778701;80;21849;-84
2021/05/15 06:21:58;;;;;;;6.28;2.00;;;;;;;21.79;56.46;99812.48;1778376;80;21339;-84
2021/05/15 06:25:01;;;;;;;4.40;1.90;;;;;;;21.94;56.93;99819.03;1778611;80;21284;-84
2021/05/15 06:28:06;;;;;;;5.03;2.10;;;;;;;22.05;55.84;99820.52;1764220;80;21323;-85
2021/05/15 06:31:12;;;;;;;12.45;4.75;;;;;;;22.11;55.09;99821.75;1761125;80;21208;-84
2021/05/15 06:34:17;;;;;;;20.77;8.23;;;;;;;22.18;55.20;99823.75;1778632;80;21830;-84
2021/05/15 06:37:22;;;;;;;7.15;3.27;;;;;;;22.27;55.61;99828.84;1778432;80;21272;-85
2021/05/15 06:40:26;;;;;;;4.35;2.00;;;;;;;22.36;55.34;99825.31;1779258;80;21296;-84
2021/05/15 06:43:31;;;;;;;13.95;7.05;;;;;;;22.33;56.00;99828.62;1779192;80;21593;-84
2021/05/15 06:46:35;;;;;;;8.73;2.80;;;;;;;22.31;55.15;99830.84;1780016;80;21822;-84
2021/05/15 06:49:40;;;;;;;11.57;5.05;;;;;;;22.28;54.99;99830.52;1779844;80;21181;-81
2021/05/15 06:52:45;;;;;;;11.20;4.97;;;;;;;22.23;55.37;99828.53;1779828;80;21300;-82
2021/05/15 06:55:50;;;;;;;14.93;7.08;;;;;;;22.31;55.96;99832.79;1779982;80;21822;-82
2021/05/15 06:58:55;;;;;;;14.68;7.78;;;;;;;22.44;56.61;99834.58;1780020;80;21287;-82
2021/05/15 07:01:59;;;;;;;6.92;2.40;;;;;;;22.57;55.64;99838.84;1778527;80;21822;-82
2021/05/15 07:05:04;;;;;;;4.70;1.80;;;;;;;22.70;53.76;99838.39;1780123;80;21303;-82
2021/05/15 07:08:12;;;;;;;10.53;4.80;;;;;;;22.83;52.95;99839.05;1779909;80;21315;-82
2021/05/15 07:11:17;;;;;;;14.85;5.87;;;;;;;22.95;52.56;99842.48;1765210;80;21273;-84
2021/05/15 07:14:22;;;;;;;8.75;1.90;;;;;;;23.06;52.07;99848.44;1764323;80;21327;-83
2021/05/15 07:17:26;;;;;;;6.42;2.15;;;;;;;23.13;50.35;99857.38;1763780;80;21336;-82
2021/05/15 07:20:31;;;;;;;6.30;2.27;;;;;;;23.19;51.17;99850.72;1780009;80;21268;-85
2021/05/15 07:23:35;;;;;;;7.17;1.85;;;;;;;23.31;52.13;99853.30;1779909;80;21165;-84
2021/05/15 07:26:40;;;;;;;9.65;2.65;;;;;;;23.41;50.37;99855.30;1779987;80;21284;-83
2021/05/15 07:29:45;;;;;;;3.35;1.75;;;;;;;23.43;49.11;99861.44;1779862;80;21312;-85
2021/05/15 07:32:49;;;;;;;8.68;1.62;;;;;;;23.47;49.29;99858.39;1779963;80;21272;-83
2021/05/15 07:35:53;;;;;;;3.20;1.40;;;;;;;23.46;50.04;99862.30;1779950;80;21320;-85
2021/05/15 07:38:59;;;;;;;6.87;2.45;;;;;;;23.44;49.92;99865.38;1779927;80;21843;-83
2021/05/15 07:42:04;;;;;;;7.55;1.60;;;;;;;23.52;50.30;99859.80;1779855;80;21280;-85
2021/05/15 07:45:09;;;;;;;4.80;1.42;;;;;;;23.66;50.19;99863.80;1780009;80;21165;-85
2021/05/15 07:48:14;;;;;;;2.47;1.27;;;;;;;23.70;49.75;99862.15;1779980;80;21295;-85
2021/05/15 07:51:23;;;;;;;4.97;1.42;;;;;;;23.77;49.42;99859.67;1780135;80;21269;-84
2021/05/15 07:54:28;;;;;;;6.42;1.90;;;;;;;23.77;48.09;99859.67;1779684;80;21327;-85
2021/05/15 07:57:33;;;;;;;6.30;2.35;;;;;;;23.73;49.84;99866.92;1780065;80;21339;-85
2021/05/15 08:00:37;;;;;;;7.60;2.12;;;;;;;23.80;48.95;99860.50;1780060;80;21276;-85
2021/05/15 08:03:35;;;;;;;5.10;1.52;;;;;;;23.93;48.58;99867.81;1777351;81;21834;-85
2021/05/15 08:06:39;;;;;;;3.75;1.07;;;;;;;23.98;47.80;99864.19;1777175;81;21260;-85
2021/05/15 08:09:45;;;;;;;7.65;1.47;;;;;;;24.05;47.69;99875.12;1777314;81;21251;-85
2021/05/15 08:12:49;;;;;;;3.62;1.75;;;;;;;24.11;47.42;99872.61;1748836;81;21840;-84
2021/05/15 08:15:54;;;;;;;9.43;1.98;;;;;;;24.13;46.95;99881.54;1777283;81;21263;-85
2021/05/15 08:19:00;;;;;;;14.15;1.40;;;;;;;24.13;46.50;99880.98;1777171;81;21290;-85
2021/05/15 08:22:05;;;;;;;5.03;1.22;;;;;;;24.11;47.63;99880.42;1754572;81;21255;-85
2021/05/15 08:25:09;;;;;;;2.52;0.80;;;;;;;24.12;47.74;99886.29;1777105;81;21302;-85
2021/05/15 08:28:15;;;;;;;3.20;1.00;;;;;;;24.19;47.54;99891.07;1752241;81;21304;-82
2021/05/15 08:31:20;;;;;;;2.15;0.98;;;;;;;24.18;45.89;99889.40;1777268;81;21144;-84
2021/05/15 08:34:23;;;;;;;1.40;0.62;;;;;;;24.07;45.17;99896.63;1752189;81;21322;-84
2021/05/15 08:37:28;;;;;;;3.92;0.88;;;;;;;23.94;45.93;99890.42;1777256;81;21302;-83
2021/05/15 08:40:34;;;;;;;4.83;1.02;;;;;;;23.98;46.13;99878.16;1777247;81;21291;-83
2021/05/15 08:43:40;;;;;;;4.15;0.90;;;;;;;24.04;45.12;99887.38;1777239;81;21876;-84
2021/05/15 08:46:45;;;;;;;5.25;0.70;;;;;;;24.03;45.90;99899.12;1777185;81;21330;-84
2021/05/15 08:49:50;;;;;;;3.20;0.72;;;;;;;24.03;45.48;99899.12;1777288;81;21326;-83
2021/05/15 08:52:59;;;;;;;2.20;0.80;;;;;;;24.07;46.11;99900.81;1777184;81;21227;-84
2021/05/15 08:56:05;;;;;;;;;;;;;;;24.04;44.86;99893.80;1779294;81;21868;-83
2021/05/15 08:59:11;;;;;;;2.33;0.78;;;;;;;23.95;45.16;99893.53;1777171;81;20277;-84
2021/05/15 09:02:16;;;;;;;2.47;0.90;;;;;;;23.89;45.48;99895.16;1777510;80;21776;-84
2021/05/15 09:05:25;;;;;;;1.67;0.85;;;;;;;23.88;44.72;99890.70;1764220;80;21232;-83
2021/05/15 09:08:32;;;;;;;2.83;0.90;;;;;;;23.92;45.82;99898.81;1779753;80;21279;-84
2021/05/15 09:11:39;;;;;;;3.33;0.80;;;;;;;24.02;46.49;99898.84;1779780;80;21921;-84
2021/05/15 09:14:46;;;;;;;3.25;1.05;;;;;;;24.08;45.77;99892.14;1779587;80;21157;-85
2021/05/15 09:17:53;;;;;;;2.62;0.78;;;;;;;24.02;45.83;99900.23;1779861;80;21189;-84
2021/05/15 09:21:03;;;;;;;3.83;0.93;;;;;;;23.97;46.46;99896.88;1778292;80;21782;-84
2021/05/15 09:24:12;;;;;;;9.53;1.62;;;;;;;24.04;45.83;99891.02;1780056;80;21303;-85
2021/05/15 09:27:17;;;;;;;3.12;0.80;;;;;;;24.11;45.33;99898.59;1764079;80;21288;-85
2021/05/15 09:30:26;;;;;;;4.50;1.37;;;;;;;24.25;45.00;99889.13;1780035;80;21319;-84
2021/05/15 09:33:37;;;;;;;1.98;0.70;;;;;;;24.35;45.16;99896.68;1780225;80;21201;-85
2021/05/15 09:36:46;;;;;;;8.33;0.90;;;;;;;24.45;44.10;99891.12;1780444;80;21339;-84
2021/05/15 09:39:54;;;;;;;1.52;0.78;;;;;;;24.60;44.67;99896.72;1780307;80;21260;-85
2021/05/15 09:43:01;;;;;;;1.10;0.60;;;;;;;24.76;43.28;99900.38;1780126;80;21284;-85
2021/05/15 09:46:07;;;;;;;4.42;0.70;;;;;;;24.87;42.26;99895.61;1780226;80;21295;-85
2021/05/15 09:49:13;;;;;;;3.35;0.80;;;;;;;24.96;42.48;99893.92;1780252;80;21311;-85
2021/05/15 09:52:18;;;;;;;5.67;0.90;;;;;;;24.98;41.16;99895.34;1780349;80;21849;-85
2021/05/15 09:55:25;;;;;;;1.55;0.65;;;;;;;24.95;39.70;99900.65;1780115;80;21271;-84
2021/05/15 09:58:31;;;;;;;6.50;0.85;;;;;;;24.85;40.33;99890.88;1780315;80;21314;-85
2021/05/15 10:01:51;;;;;;;3.62;1.10;;;;;;;24.92;39.70;99892.24;1765677;80;21220;-84
2021/05/15 10:04:58;;;;;;;3.90;0.93;;;;;;;25.05;38.93;99893.63;1772406;80;21649;-85
2021/05/15 10:08:15;;;;;;;3.95;1.05;;;;;;;25.15;39.34;99896.45;1771957;81;21837;-86
2021/05/15 10:11:22;;;;;;;8.23;0.90;;;;;;;25.23;38.90;99890.28;1772098;81;21684;-85
2021/05/15 10:14:28;;;;;;;3.85;0.70;;;;;;;25.14;39.35;99889.17;1771923;81;21303;-85
2021/05/15 10:17:35;;;;;;;2.33;0.70;;;;;;;25.11;39.17;99888.33;1771958;81;21648;-85
2021/05/15 10:20:41;;;;;;;2.00;0.80;;;;;;;25.13;38.40;99895.90;1772065;81;21679;-84
2021/05/15 10:23:50;;;;;;;7.53;0.70;;;;;;;25.15;39.52;99891.41;1771978;81;21323;-84
2021/05/15 10:27:06;;;;;;;4.50;1.10;;;;;;;25.23;39.74;99886.08;1771982;81;22181;-85
2021/05/15 10:30:27;;;;;;;1.45;0.60;;;;;;;25.36;36.90;99887.45;1771885;81;21324;-85
2021/05/15 10:33:30;;;;;;;3.77;0.70;;;;;;;25.39;37.02;99895.83;1771978;81;21830;-85
2021/05/15 10:36:35;;;;;;;3.17;0.70;;;;;;;25.33;36.63;99870.38;1772071;81;21280;-86
2021/05/15 10:39:44;;;;;;;8.83;0.95;;;;;;;25.32;37.01;99878.52;1771993;81;21719;-85
2021/05/15 10:42:50;;;;;;;5.33;0.60;;;;;;;25.31;35.90;99878.21;1771817;81;21786;-85
2021/05/15 10:45:58;;;;;;;1.27;0.65;;;;;;;25.28;37.52;99881.59;1771560;81;21305;-86
2021/05/15 10:49:13;;;;;;;1.95;0.80;;;;;;;25.15;37.51;99878.82;1771929;81;21300;-85
2021/05/15 10:52:23;;;;;;;6.30;0.93;;;;;;;24.95;36.80;99873.51;1771424;81;21272;-85
2021/05/15 10:55:41;;;;;;;1.40;0.50;;;;;;;24.74;38.04;99878.27;1771897;81;21272;-85
2021/05/15 10:58:50;;;;;;;1.35;0.60;;;;;;;24.65;38.91;99875.75;1771853;81;21261;-85
2021/05/15 11:02:01;;;;;;;3.25;0.70;;;;;;;24.64;38.58;99885.83;1771876;81;21261;-85
2021/05/15 11:05:11;;;;;;;8.45;1.25;;;;;;;24.61;38.67;99868.23;1777887;78;21295;-85
2021/05/15 11:08:10;;;;;;;6.65;0.45;;;;;;;24.60;38.60;99875.75;1751370;80;21176;-86
2021/05/15 11:11:16;;;;;;;5.05;1.10;;;;;;;24.61;37.81;99880.25;1785565;80;21264;-86
2021/05/15 11:14:40;;;;;;;2.35;0.62;;;;;;;24.56;38.65;99876.06;1785324;80;21165;-86
2021/05/15 11:17:48;;;;;;;0.90;0.53;;;;;;;24.55;38.50;99874.36;1785203;80;21216;-85
2021/05/15 11:20:56;;;;;;;3.60;0.82;;;;;;;24.51;39.72;99862.05;1785559;80;21260;-85
2021/05/15 11:24:05;;;;;;;2.77;0.68;;;;;;;24.54;40.12;99860.11;1785412;80;21216;-85
2021/05/15 11:27:22;;;;;;;1.15;0.60;;;;;;;24.52;38.36;99857.33;1783980;80;21188;-85
2021/05/15 11:30:36;;;;;;;1.17;0.40;;;;;;;24.48;38.30;99860.67;1785543;80;21164;-85
2021/05/15 11:33:42;;;;;;;1.60;0.62;;;;;;;24.41;38.93;99851.70;1785314;80;21316;-86
2021/05/15 11:36:52;;;;;;;2.27;0.50;;;;;;;24.40;39.10;99832.43;1785622;80;21180;-85
2021/05/15 11:40:01;;;;;;;3.60;0.60;;;;;;;24.42;37.45;99851.17;1783705;80;21207;-85
2021/05/15 11:43:08;;;;;;;4.30;2.30;;;;;;;24.39;37.65;99837.19;1785145;80;21718;-85
2021/05/15 11:46:17;;;;;;;5.45;1.30;;;;;;;24.37;38.61;99843.63;1785521;80;21714;-85
2021/05/15 11:49:33;;;;;;;8.83;1.50;;;;;;;24.38;38.34;99841.10;1785511;80;21188;-85
2021/05/15 11:52:41;;;;;;;2.33;0.75;;;;;;;24.41;37.98;99831.30;1772432;80;21287;-85
2021/05/15 11:55:48;;;;;;;1.27;0.57;;;;;;;24.43;37.53;99844.46;1785865;80;21881;-86
2021/05/15 11:59:00;;;;;;;1.40;0.60;;;;;;;24.43;35.82;99842.50;1784814;80;21272;-85
2021/05/15 12:02:06;;;;;;;2.95;0.35;;;;;;;24.37;35.68;99832.98;1771054;80;21307;-85
2021/05/15 12:05:14;;;;;;;3.37;0.65;;;;;;;24.34;35.53;99828.77;1770177;80;21663;-85
2021/05/15 12:08:19;;;;;;;4.15;0.60;;;;;;;24.35;35.28;99836.59;1763701;81;21810;-85
2021/05/15 12:11:25;;;;;;;3.33;0.55;;;;;;;24.33;36.08;99827.66;1771804;81;21268;-85
2021/05/15 12:14:32;;;;;;;2.45;0.70;;;;;;;24.28;35.66;99829.02;1771722;81;21324;-82
2021/05/15 12:17:38;;;;;;;6.12;0.60;;;;;;;24.20;36.14;99822.89;1771658;81;21229;-85
2021/05/15 12:20:50;;;;;;;2.60;1.10;;;;;;;24.18;36.99;99822.34;1771779;81;21814;-85
2021/05/15 12:23:55;;;;;;;2.90;0.68;;;;;;;24.21;37.15;99812.55;1763333;81;21221;-85
2021/05/15 12:27:00;;;;;;;4.87;1.20;;;;;;;24.23;36.14;99815.92;1771651;81;21177;-85
2021/05/15 12:30:08;;;;;;;6.45;0.35;;;;;;;24.27;36.16;99821.77;1763371;81;21295;-85
2021/05/15 12:33:14;;;;;;;0.57;0.30;;;;;;;24.27;35.77;99806.39;1772002;81;21806;-85
2021/05/15 12:36:21;;;;;;;0.70;0.30;;;;;;;24.27;33.92;99818.97;1771584;81;21483;-85
2021/05/15 12:39:27;;;;;;;2.15;0.60;;;;;;;24.23;33.90;99813.13;1772784;80;21328;-85
2021/05/15 12:42:39;;;;;;;2.25;0.30;;;;;;;24.19;33.89;99821.22;1770547;80;21318;-85
2021/05/15 12:45:47;;;;;;;0.53;0.40;;;;;;;24.18;32.70;99813.09;1778970;80;21837;-85
2021/05/15 12:49:22;;;;;;;1.40;0.50;;;;;;;24.17;32.97;99818.41;1786983;80;21818;-85
2021/05/15 12:52:27;;;;;;;1.25;0.68;;;;;;;24.17;33.95;99817.02;1774424;80;21885;-85
2021/05/15 12:55:32;;;;;;;3.10;0.53;;;;;;;24.16;33.30;99813.38;1787000;80;21817;-85
2021/05/15 12:58:37;;;;;;;1.60;0.60;;;;;;;24.17;33.44;99814.22;1787046;80;21223;-85
2021/05/15 13:01:44;;;;;;;2.77;0.70;;;;;;;24.16;34.69;99811.98;1787007;80;21310;-85
2021/05/15 13:04:55;;;;;;;0.90;0.50;;;;;;;24.13;33.96;99815.88;1787744;80;21256;-85
2021/05/15 13:08:00;;;;;;;2.10;0.57;;;;;;;24.11;33.98;99812.55;1770361;80;21275;-85
2021/05/15 13:11:20;;;;;;;3.52;0.60;;;;;;;24.09;33.75;99813.36;1751970;80;21332;-85
2021/05/15 13:14:28;;;;;;;2.87;0.60;;;;;;;24.06;34.98;99814.77;1790883;80;21223;-84
2021/05/15 13:17:34;;;;;;;1.87;0.62;;;;;;;24.03;34.99;99815.31;1790302;80;21298;-85
2021/05/15 13:20:40;;;;;;;2.10;1.30;;;;;;;24.01;35.93;99812.53;1791187;80;21145;-85
2021/05/15 13:23:46;;;;;;;1.22;0.90;;;;;;;23.98;35.74;99812.52;1791066;80;21184;-86
2021/05/15 13:26:53;;;;;;;0.75;0.40;;;;;;;23.94;35.64;99808.03;1790907;80;21263;-85
2021/05/15 13:30:01;;;;;;;8.08;0.70;;;;;;;23.91;35.85;99808.61;1790766;80;21284;-86
2021/05/15 13:33:09;;;;;;;1.42;0.50;;;;;;;23.89;36.08;99815.56;1791132;80;21781;-85
2021/05/15 13:36:15;;;;;;;3.08;0.60;;;;;;;23.86;35.99;99802.18;1790994;80;21632;-85
2021/05/15 13:39:22;;;;;;;0.78;0.40;;;;;;;23.83;36.49;99799.93;1790737;80;21226;-86
2021/05/15 13:42:27;;;;;;;1.40;0.60;;;;;;;23.81;36.14;99797.42;1790275;80;21813;-85
2021/05/15 13:45:36;;;;;;;1.87;0.80;;;;;;;23.81;37.36;99796.59;1791116;80;21286;-85
2021/05/15 13:48:42;;;;;;;1.02;0.65;;;;;;;23.79;36.39;99790.42;1790949;80;21263;-85
2021/05/15 13:51:48;;;;;;;1.20;0.47;;;;;;;23.76;36.95;99796.02;1792992;80;21690;-85
2021/05/15 13:54:54;;;;;;;2.60;0.68;;;;;;;23.73;37.62;99798.52;1792995;80;21191;-84
2021/05/15 13:57:59;;;;;;;2.85;0.70;;;;;;;23.69;36.91;99792.07;1792217;80;21330;-86
2021/05/15 14:01:05;;;;;;;6.62;0.70;;;;;;;23.66;36.60;99792.61;1791533;80;21172;-85
2021/05/15 14:04:10;;;;;;;3.33;0.70;;;;;;;23.64;37.06;99794.02;1791417;80;21311;-86
2021/05/15 14:07:16;;;;;;;4.92;0.50;;;;;;;23.60;36.86;99791.45;1792783;80;21289;-84
2021/05/15 14:10:22;;;;;;;1.12;0.40;;;;;;;23.56;36.40;99789.77;1798745;80;21331;-82
2021/05/15 14:13:28;;;;;;;3.75;1.22;;;;;;;23.54;36.64;99789.22;1796426;80;21262;-82
2021/05/15 14:16:34;;;;;;;3.80;0.80;;;;;;;23.52;37.64;99797.01;1799140;80;21278;-82
2021/05/15 14:19:41;;;;;;;6.28;0.75;;;;;;;23.49;38.31;99793.39;1799819;80;21148;-82
2021/05/15 14:22:46;;;;;;;10.30;1.07;;;;;;;23.48;38.48;99787.53;1799722;80;21273;-81
2021/05/15 14:25:52;;;;;;;6.90;0.93;;;;;;;23.45;38.32;99793.09;1799270;80;21195;-82
2021/05/15 14:28:58;;;;;;;4.70;0.95;;;;;;;23.39;38.63;99784.98;1775510;80;21329;-82
2021/05/15 14:32:05;;;;;;;4.03;0.60;;;;;;;23.35;37.80;99784.69;1797014;80;21283;-83
2021/05/15 14:35:11;;;;;;;2.27;0.90;;;;;;;23.29;38.27;99783.00;1798183;80;21848;-83